sensor_id;sensor_type;location;lat;lon;timestamp;temperature;humidity
14733;DHT22;7457;50.960;6.830;2023-04-05T00:01:32;0.30;74.20
14733;DHT22;7457;50.960;6.830;2023-04-05T00:03:59;0.20;74.30
14733;DHT22;7457;50.960;6.830;2023-04-05T00:06:26;0.20;74.40
14733;DHT22;7457;50.960;6.830;2023-04-05T00:09:03;0.20;74.50
14733;DHT22;7457;50.960;6.830;2023-04-05T00:11:30;0.20;74.70
14733;DHT22;7457;50.960;6.830;2023-04-05T00:14:01;0.20;74.70
14733;DHT22;7457;50.960;6.830;2023-04-05T00:16:27;0.10;74.90
14733;DHT22;7457;50.960;6.830;2023-04-05T00:18:54;0.20;74.90
14733;DHT22;7457;50.960;6.830;2023-04-05T00:21:21;0.20;75.10
14733;DHT22;7457;50.960;6.830;2023-04-05T00:23:48;0.20;75.10
14733;DHT22;7457;50.960;6.830;2023-04-05T00:26:16;0.30;75.10
14733;DHT22;7457;50.960;6.830;2023-04-05T00:28:42;0.30;75.10
14733;DHT22;7457;50.960;6.830;2023-04-05T00:31:07;0.30;75.10
14733;DHT22;7457;50.960;6.830;2023-04-05T00:33:33;0.30;75.10
14733;DHT22;7457;50.960;6.830;2023-04-05T00:38:39;0.30;75.10
14733;DHT22;7457;50.960;6.830;2023-04-05T00:41:06;0.30;75.10
14733;DHT22;7457;50.960;6.830;2023-04-05T00:43:32;0.30;75.20
14733;DHT22;7457;50.960;6.830;2023-04-05T00:45:57;0.30;75.40
14733;DHT22;7457;50.960;6.830;2023-04-05T00:48:23;0.30;75.40
14733;DHT22;7457;50.960;6.830;2023-04-05T00:50:51;0.30;75.60
14733;DHT22;7457;50.960;6.830;2023-04-05T00:53:18;0.30;75.60
14733;DHT22;7457;50.960;6.830;2023-04-05T00:55:45;0.30;75.70
14733;DHT22;7457;50.960;6.830;2023-04-05T00:58:12;0.40;75.70
14733;DHT22;7457;50.960;6.830;2023-04-05T01:00:38;0.40;75.80
14733;DHT22;7457;50.960;6.830;2023-04-05T01:03:05;0.40;75.80
14733;DHT22;7457;50.960;6.830;2023-04-05T01:08:15;0.50;75.90
14733;DHT22;7457;50.960;6.830;2023-04-05T01:10:45;0.50;75.90
14733;DHT22;7457;50.960;6.830;2023-04-05T01:13:11;0.50;75.80
14733;DHT22;7457;50.960;6.830;2023-04-05T01:15:37;0.60;75.70
14733;DHT22;7457;50.960;6.830;2023-04-05T01:18:03;0.60;75.80
14733;DHT22;7457;50.960;6.830;2023-04-05T01:20:33;0.60;75.80
14733;DHT22;7457;50.960;6.830;2023-04-05T01:29:03;0.60;75.90
14733;DHT22;7457;50.960;6.830;2023-04-05T01:34:22;0.50;76.20
14733;DHT22;7457;50.960;6.830;2023-04-05T01:37:01;0.50;76.20
14733;DHT22;7457;50.960;6.830;2023-04-05T01:39:28;0.50;76.60
14733;DHT22;7457;50.960;6.830;2023-04-05T01:41:59;0.40;76.70
14733;DHT22;7457;50.960;6.830;2023-04-05T01:44:26;0.40;76.80
14733;DHT22;7457;50.960;6.830;2023-04-05T01:46:51;0.40;76.90
14733;DHT22;7457;50.960;6.830;2023-04-05T01:49:17;0.40;77.10
14733;DHT22;7457;50.960;6.830;2023-04-05T01:51:43;0.40;77.20
14733;DHT22;7457;50.960;6.830;2023-04-05T01:54:08;0.40;77.30
14733;DHT22;7457;50.960;6.830;2023-04-05T01:56:34;0.40;77.40
14733;DHT22;7457;50.960;6.830;2023-04-05T01:59:00;0.40;77.40
14733;DHT22;7457;50.960;6.830;2023-04-05T02:01:25;0.40;77.50
14733;DHT22;7457;50.960;6.830;2023-04-05T02:03:51;0.50;77.50
14733;DHT22;7457;50.960;6.830;2023-04-05T02:06:17;0.50;77.60
14733;DHT22;7457;50.960;6.830;2023-04-05T02:08:42;0.50;77.60
14733;DHT22;7457;50.960;6.830;2023-04-05T02:11:08;0.50;77.60
14733;DHT22;7457;50.960;6.830;2023-04-05T02:13:33;0.50;77.60
14733;DHT22;7457;50.960;6.830;2023-04-05T02:15:59;0.50;77.50
14733;DHT22;7457;50.960;6.830;2023-04-05T02:18:25;0.60;77.50
14733;DHT22;7457;50.960;6.830;2023-04-05T02:21:06;0.60;77.40
14733;DHT22;7457;50.960;6.830;2023-04-05T02:23:32;0.60;77.40
14733;DHT22;7457;50.960;6.830;2023-04-05T02:25:59;0.60;77.50
14733;DHT22;7457;50.960;6.830;2023-04-05T02:28:25;0.70;77.40
14733;DHT22;7457;50.960;6.830;2023-04-05T02:30:51;0.70;77.40
14733;DHT22;7457;50.960;6.830;2023-04-05T02:33:17;0.70;77.30
14733;DHT22;7457;50.960;6.830;2023-04-05T02:35:42;0.80;77.30
14733;DHT22;7457;50.960;6.830;2023-04-05T02:38:08;0.80;77.30
14733;DHT22;7457;50.960;6.830;2023-04-05T02:40:34;0.80;77.20
14733;DHT22;7457;50.960;6.830;2023-04-05T02:43:00;0.80;77.20
14733;DHT22;7457;50.960;6.830;2023-04-05T02:45:25;0.80;77.60
14733;DHT22;7457;50.960;6.830;2023-04-05T02:47:54;0.70;77.50
14733;DHT22;7457;50.960;6.830;2023-04-05T02:50:20;0.70;77.50
14733;DHT22;7457;50.960;6.830;2023-04-05T02:52:46;0.70;77.60
14733;DHT22;7457;50.960;6.830;2023-04-05T02:55:14;0.60;77.70
14733;DHT22;7457;50.960;6.830;2023-04-05T02:57:42;0.60;77.80
14733;DHT22;7457;50.960;6.830;2023-04-05T03:00:09;0.50;77.90
14733;DHT22;7457;50.960;6.830;2023-04-05T03:02:36;0.40;78.00
14733;DHT22;7457;50.960;6.830;2023-04-05T03:05:03;0.40;78.20
14733;DHT22;7457;50.960;6.830;2023-04-05T03:07:28;0.30;78.40
14733;DHT22;7457;50.960;6.830;2023-04-05T03:09:54;0.30;78.60
14733;DHT22;7457;50.960;6.830;2023-04-05T03:12:21;0.30;78.80
14733;DHT22;7457;50.960;6.830;2023-04-05T03:14:47;0.30;79.00
14733;DHT22;7457;50.960;6.830;2023-04-05T03:17:12;0.30;79.10
14733;DHT22;7457;50.960;6.830;2023-04-05T03:19:38;0.30;79.10
14733;DHT22;7457;50.960;6.830;2023-04-05T03:22:05;0.30;79.00
14733;DHT22;7457;50.960;6.830;2023-04-05T03:24:32;0.30;78.90
14733;DHT22;7457;50.960;6.830;2023-04-05T03:27:00;0.30;78.70
14733;DHT22;7457;50.960;6.830;2023-04-05T03:29:27;0.20;78.80
14733;DHT22;7457;50.960;6.830;2023-04-05T03:31:52;0.10;78.90
14733;DHT22;7457;50.960;6.830;2023-04-05T03:34:18;0.10;79.00
14733;DHT22;7457;50.960;6.830;2023-04-05T03:36:44;0.00;79.20
14733;DHT22;7457;50.960;6.830;2023-04-05T03:39:11;0.10;79.40
14733;DHT22;7457;50.960;6.830;2023-04-05T03:41:40;0.10;79.60
14733;DHT22;7457;50.960;6.830;2023-04-05T03:44:07;0.20;80.40
14733;DHT22;7457;50.960;6.830;2023-04-05T03:46:33;0.30;80.30
14733;DHT22;7457;50.960;6.830;2023-04-05T03:49:01;0.40;79.80
14733;DHT22;7457;50.960;6.830;2023-04-05T03:51:26;0.50;79.40
14733;DHT22;7457;50.960;6.830;2023-04-05T03:53:52;0.50;79.00
14733;DHT22;7457;50.960;6.830;2023-04-05T03:56:18;0.50;78.80
14733;DHT22;7457;50.960;6.830;2023-04-05T03:58:45;0.60;78.60
14733;DHT22;7457;50.960;6.830;2023-04-05T04:01:11;0.50;78.40
14733;DHT22;7457;50.960;6.830;2023-04-05T04:03:37;0.50;78.50
14733;DHT22;7457;50.960;6.830;2023-04-05T04:06:05;0.50;78.70
14733;DHT22;7457;50.960;6.830;2023-04-05T04:08:31;0.50;78.60
14733;DHT22;7457;50.960;6.830;2023-04-05T04:10:56;0.50;78.40
14733;DHT22;7457;50.960;6.830;2023-04-05T04:13:22;0.40;78.20
14733;DHT22;7457;50.960;6.830;2023-04-05T04:15:48;0.40;78.20
14733;DHT22;7457;50.960;6.830;2023-04-05T04:18:13;0.20;78.20
14733;DHT22;7457;50.960;6.830;2023-04-05T04:20:39;0.10;78.40
14733;DHT22;7457;50.960;6.830;2023-04-05T04:23:05;0.00;78.40
14733;DHT22;7457;50.960;6.830;2023-04-05T04:25:34;0.00;78.60
14733;DHT22;7457;50.960;6.830;2023-04-05T04:28:02;-0.10;78.90
14733;DHT22;7457;50.960;6.830;2023-04-05T04:30:28;-0.20;79.00
14733;DHT22;7457;50.960;6.830;2023-04-05T04:32:54;-0.30;79.20
14733;DHT22;7457;50.960;6.830;2023-04-05T04:35:21;-0.40;79.40
14733;DHT22;7457;50.960;6.830;2023-04-05T04:43:09;-0.50;80.30
14733;DHT22;7457;50.960;6.830;2023-04-05T04:45:39;-0.60;80.50
14733;DHT22;7457;50.960;6.830;2023-04-05T04:48:05;-0.60;80.70
14733;DHT22;7457;50.960;6.830;2023-04-05T04:50:31;-0.60;80.80
14733;DHT22;7457;50.960;6.830;2023-04-05T04:53:00;-0.60;81.00
14733;DHT22;7457;50.960;6.830;2023-04-05T04:55:29;-0.60;81.30
14733;DHT22;7457;50.960;6.830;2023-04-05T04:57:58;-0.60;81.50
14733;DHT22;7457;50.960;6.830;2023-04-05T05:00:24;-0.60;81.60
14733;DHT22;7457;50.960;6.830;2023-04-05T05:02:54;-0.60;81.70
14733;DHT22;7457;50.960;6.830;2023-04-05T05:05:20;-0.60;81.90
14733;DHT22;7457;50.960;6.830;2023-04-05T05:07:47;-0.60;82.10
14733;DHT22;7457;50.960;6.830;2023-04-05T05:10:13;-0.60;82.20
14733;DHT22;7457;50.960;6.830;2023-04-05T05:12:41;-0.60;82.20
14733;DHT22;7457;50.960;6.830;2023-04-05T05:15:07;-0.60;82.40
14733;DHT22;7457;50.960;6.830;2023-04-05T05:17:33;-0.60;82.70
14733;DHT22;7457;50.960;6.830;2023-04-05T05:20:00;-0.50;82.90
14733;DHT22;7457;50.960;6.830;2023-04-05T05:22:26;-0.50;83.10
14733;DHT22;7457;50.960;6.830;2023-04-05T05:24:52;-0.40;83.20
14733;DHT22;7457;50.960;6.830;2023-04-05T05:27:18;-0.40;83.40
14733;DHT22;7457;50.960;6.830;2023-04-05T05:29:43;-0.30;83.60
14733;DHT22;7457;50.960;6.830;2023-04-05T05:32:09;-0.20;83.80
14733;DHT22;7457;50.960;6.830;2023-04-05T05:34:40;-0.10;84.30
14733;DHT22;7457;50.960;6.830;2023-04-05T05:37:06;0.00;84.60
14733;DHT22;7457;50.960;6.830;2023-04-05T05:39:34;0.10;84.80
14733;DHT22;7457;50.960;6.830;2023-04-05T05:42:01;0.30;84.80
14733;DHT22;7457;50.960;6.830;2023-04-05T05:44:28;0.50;85.00
14733;DHT22;7457;50.960;6.830;2023-04-05T05:46:53;1.00;85.30
14733;DHT22;7457;50.960;6.830;2023-04-05T05:49:19;1.40;85.70
14733;DHT22;7457;50.960;6.830;2023-04-05T05:51:45;2.00;84.10
14733;DHT22;7457;50.960;6.830;2023-04-05T05:54:11;2.30;83.40
14733;DHT22;7457;50.960;6.830;2023-04-05T05:56:37;2.60;82.60
14733;DHT22;7457;50.960;6.830;2023-04-05T05:59:03;3.20;83.30
14733;DHT22;7457;50.960;6.830;2023-04-05T06:01:28;4.00;81.10
14733;DHT22;7457;50.960;6.830;2023-04-05T06:03:54;4.70;80.40
14733;DHT22;7457;50.960;6.830;2023-04-05T06:06:20;5.70;80.70
14733;DHT22;7457;50.960;6.830;2023-04-05T06:08:46;6.80;78.10
14733;DHT22;7457;50.960;6.830;2023-04-05T06:11:18;7.70;75.50
14733;DHT22;7457;50.960;6.830;2023-04-05T06:13:45;8.30;72.90
14733;DHT22;7457;50.960;6.830;2023-04-05T06:16:11;8.70;72.20
14733;DHT22;7457;50.960;6.830;2023-04-05T06:18:37;9.10;69.40
14733;DHT22;7457;50.960;6.830;2023-04-05T06:21:02;8.90;67.90
14733;DHT22;7457;50.960;6.830;2023-04-05T06:23:28;8.70;67.30
14733;DHT22;7457;50.960;6.830;2023-04-05T06:25:55;9.10;67.60
14733;DHT22;7457;50.960;6.830;2023-04-05T06:28:21;9.40;66.40
14733;DHT22;7457;50.960;6.830;2023-04-05T06:30:47;9.80;65.20
14733;DHT22;7457;50.960;6.830;2023-04-05T06:33:13;9.80;63.40
14733;DHT22;7457;50.960;6.830;2023-04-05T06:35:38;10.00;63.20
14733;DHT22;7457;50.960;6.830;2023-04-05T06:38:04;10.20;63.00
14733;DHT22;7457;50.960;6.830;2023-04-05T06:40:30;10.50;62.80
14733;DHT22;7457;50.960;6.830;2023-04-05T06:42:56;10.80;60.70
14733;DHT22;7457;50.960;6.830;2023-04-05T06:45:21;10.60;59.40
14733;DHT22;7457;50.960;6.830;2023-04-05T06:47:48;10.10;58.50
14733;DHT22;7457;50.960;6.830;2023-04-05T06:50:13;9.40;58.80
14733;DHT22;7457;50.960;6.830;2023-04-05T06:52:39;9.20;61.00
14733;DHT22;7457;50.960;6.830;2023-04-05T06:55:05;9.10;59.50
14733;DHT22;7457;50.960;6.830;2023-04-05T06:57:33;8.50;60.00
14733;DHT22;7457;50.960;6.830;2023-04-05T06:59:58;8.20;61.30
14733;DHT22;7457;50.960;6.830;2023-04-05T07:02:24;8.00;61.40
14733;DHT22;7457;50.960;6.830;2023-04-05T07:04:50;7.70;61.40
14733;DHT22;7457;50.960;6.830;2023-04-05T07:07:16;7.30;62.50
14733;DHT22;7457;50.960;6.830;2023-04-05T07:09:42;6.90;63.30
14733;DHT22;7457;50.960;6.830;2023-04-05T07:12:08;6.70;64.10
14733;DHT22;7457;50.960;6.830;2023-04-05T07:14:35;6.70;64.20
14733;DHT22;7457;50.960;6.830;2023-04-05T07:17:05;6.60;64.50
14733;DHT22;7457;50.960;6.830;2023-04-05T07:19:31;6.40;65.10
14733;DHT22;7457;50.960;6.830;2023-04-05T07:21:58;6.40;65.40
14733;DHT22;7457;50.960;6.830;2023-04-05T07:24:24;6.40;65.30
14733;DHT22;7457;50.960;6.830;2023-04-05T07:26:49;6.40;65.40
14733;DHT22;7457;50.960;6.830;2023-04-05T07:29:15;6.40;65.50
14733;DHT22;7457;50.960;6.830;2023-04-05T07:31:41;6.60;65.70
14733;DHT22;7457;50.960;6.830;2023-04-05T07:34:06;6.80;65.20
14733;DHT22;7457;50.960;6.830;2023-04-05T07:36:32;7.10;64.20
14733;DHT22;7457;50.960;6.830;2023-04-05T07:38:58;7.30;63.90
14733;DHT22;7457;50.960;6.830;2023-04-05T07:41:25;7.60;63.40
14733;DHT22;7457;50.960;6.830;2023-04-05T07:43:51;7.90;62.40
14733;DHT22;7457;50.960;6.830;2023-04-05T07:46:16;8.20;62.10
14733;DHT22;7457;50.960;6.830;2023-04-05T07:48:42;8.70;62.20
14733;DHT22;7457;50.960;6.830;2023-04-05T07:51:08;9.30;61.10
14733;DHT22;7457;50.960;6.830;2023-04-05T07:53:35;9.60;59.80
14733;DHT22;7457;50.960;6.830;2023-04-05T07:56:05;9.90;59.70
14733;DHT22;7457;50.960;6.830;2023-04-05T07:58:32;10.20;59.00
14733;DHT22;7457;50.960;6.830;2023-04-05T08:01:02;10.40;59.30
14733;DHT22;7457;50.960;6.830;2023-04-05T08:03:28;10.70;57.90
14733;DHT22;7457;50.960;6.830;2023-04-05T08:05:54;10.80;57.30
14733;DHT22;7457;50.960;6.830;2023-04-05T08:08:21;10.90;56.60
14733;DHT22;7457;50.960;6.830;2023-04-05T08:10:47;10.80;56.50
14733;DHT22;7457;50.960;6.830;2023-04-05T08:13:12;10.80;57.00
14733;DHT22;7457;50.960;6.830;2023-04-05T08:15:39;11.10;57.10
14733;DHT22;7457;50.960;6.830;2023-04-05T08:18:04;11.50;56.20
14733;DHT22;7457;50.960;6.830;2023-04-05T08:20:30;11.80;54.80
14733;DHT22;7457;50.960;6.830;2023-04-05T08:22:56;12.00;55.00
14733;DHT22;7457;50.960;6.830;2023-04-05T08:25:21;12.30;54.10
14733;DHT22;7457;50.960;6.830;2023-04-05T08:27:47;12.60;53.90
14733;DHT22;7457;50.960;6.830;2023-04-05T08:30:13;13.00;53.50
14733;DHT22;7457;50.960;6.830;2023-04-05T08:32:40;13.30;51.50
14733;DHT22;7457;50.960;6.830;2023-04-05T08:35:05;13.40;51.10
14733;DHT22;7457;50.960;6.830;2023-04-05T08:37:34;13.40;49.30
14733;DHT22;7457;50.960;6.830;2023-04-05T08:40:01;13.60;50.10
14733;DHT22;7457;50.960;6.830;2023-04-05T08:42:39;13.70;49.70
14733;DHT22;7457;50.960;6.830;2023-04-05T08:45:08;13.80;50.40
14733;DHT22;7457;50.960;6.830;2023-04-05T08:47:36;14.10;51.00
14733;DHT22;7457;50.960;6.830;2023-04-05T08:50:04;14.40;51.00
14733;DHT22;7457;50.960;6.830;2023-04-05T08:52:33;14.80;50.10
14733;DHT22;7457;50.960;6.830;2023-04-05T08:55:03;15.00;49.00
14733;DHT22;7457;50.960;6.830;2023-04-05T08:57:30;15.10;49.30
14733;DHT22;7457;50.960;6.830;2023-04-05T08:59:58;15.20;49.10
14733;DHT22;7457;50.960;6.830;2023-04-05T09:02:25;15.30;48.50
14733;DHT22;7457;50.960;6.830;2023-04-05T09:04:51;15.30;48.30
14733;DHT22;7457;50.960;6.830;2023-04-05T09:07:19;15.30;47.10
14733;DHT22;7457;50.960;6.830;2023-04-05T09:09:48;15.00;46.50
14733;DHT22;7457;50.960;6.830;2023-04-05T09:12:20;14.50;47.00
14733;DHT22;7457;50.960;6.830;2023-04-05T09:14:49;14.10;47.00
14733;DHT22;7457;50.960;6.830;2023-04-05T09:17:18;13.90;46.80
14733;DHT22;7457;50.960;6.830;2023-04-05T09:19:44;13.50;46.60
14733;DHT22;7457;50.960;6.830;2023-04-05T09:22:10;13.10;47.40
14733;DHT22;7457;50.960;6.830;2023-04-05T09:24:40;12.80;47.90
14733;DHT22;7457;50.960;6.830;2023-04-05T09:27:12;12.50;48.30
14733;DHT22;7457;50.960;6.830;2023-04-05T09:29:40;12.20;48.90
14733;DHT22;7457;50.960;6.830;2023-04-05T09:32:07;12.10;49.40
14733;DHT22;7457;50.960;6.830;2023-04-05T09:34:34;12.00;49.50
14733;DHT22;7457;50.960;6.830;2023-04-05T09:37:23;12.10;49.90
14733;DHT22;7457;50.960;6.830;2023-04-05T09:39:49;12.20;50.20
14733;DHT22;7457;50.960;6.830;2023-04-05T09:42:17;12.30;50.50
14733;DHT22;7457;50.960;6.830;2023-04-05T09:45:00;12.40;50.50
14733;DHT22;7457;50.960;6.830;2023-04-05T09:47:28;12.60;49.20
14733;DHT22;7457;50.960;6.830;2023-04-05T09:50:03;12.70;49.10
14733;DHT22;7457;50.960;6.830;2023-04-05T09:52:31;12.90;49.10
14733;DHT22;7457;50.960;6.830;2023-04-05T09:54:59;13.00;49.40
14733;DHT22;7457;50.960;6.830;2023-04-05T09:57:26;13.30;50.40
14733;DHT22;7457;50.960;6.830;2023-04-05T09:59:52;13.90;50.10
14733;DHT22;7457;50.960;6.830;2023-04-05T10:02:20;14.70;49.50
14733;DHT22;7457;50.960;6.830;2023-04-05T10:04:46;15.40;47.60
14733;DHT22;7457;50.960;6.830;2023-04-05T10:07:14;15.90;46.00
14733;DHT22;7457;50.960;6.830;2023-04-05T10:09:41;16.00;42.90
14733;DHT22;7457;50.960;6.830;2023-04-05T10:12:09;16.10;42.90
14733;DHT22;7457;50.960;6.830;2023-04-05T10:14:36;16.20;42.90
14733;DHT22;7457;50.960;6.830;2023-04-05T10:17:13;16.20;42.20
14733;DHT22;7457;50.960;6.830;2023-04-05T10:28:20;17.20;43.00
14733;DHT22;7457;50.960;6.830;2023-04-05T10:30:54;17.40;42.90
14733;DHT22;7457;50.960;6.830;2023-04-05T10:33:40;17.50;42.90
14733;DHT22;7457;50.960;6.830;2023-04-05T10:39:16;17.60;42.80
14733;DHT22;7457;50.960;6.830;2023-04-05T10:41:47;17.70;40.70
14733;DHT22;7457;50.960;6.830;2023-04-05T10:44:14;17.50;40.20
14733;DHT22;7457;50.960;6.830;2023-04-05T10:46:40;17.40;40.30
14733;DHT22;7457;50.960;6.830;2023-04-05T10:49:19;17.30;40.60
14733;DHT22;7457;50.960;6.830;2023-04-05T10:51:47;17.50;40.80
14733;DHT22;7457;50.960;6.830;2023-04-05T10:54:13;17.70;40.70
14733;DHT22;7457;50.960;6.830;2023-04-05T10:56:42;17.70;41.20
14733;DHT22;7457;50.960;6.830;2023-04-05T10:59:09;17.90;40.50
14733;DHT22;7457;50.960;6.830;2023-04-05T11:04:13;18.10;39.20
14733;DHT22;7457;50.960;6.830;2023-04-05T11:06:39;18.10;38.10
14733;DHT22;7457;50.960;6.830;2023-04-05T11:09:17;18.10;38.90
14733;DHT22;7457;50.960;6.830;2023-04-05T11:11:45;18.10;38.00
14733;DHT22;7457;50.960;6.830;2023-04-05T11:16:46;18.10;38.00
14733;DHT22;7457;50.960;6.830;2023-04-05T11:19:15;18.10;38.60
14733;DHT22;7457;50.960;6.830;2023-04-05T11:21:41;18.30;38.50
14733;DHT22;7457;50.960;6.830;2023-04-05T11:24:13;18.40;38.70
14733;DHT22;7457;50.960;6.830;2023-04-05T11:29:09;18.60;39.00
14733;DHT22;7457;50.960;6.830;2023-04-05T11:31:35;18.70;39.00
14733;DHT22;7457;50.960;6.830;2023-04-05T11:34:07;18.80;39.50
14733;DHT22;7457;50.960;6.830;2023-04-05T11:36:43;18.90;38.80
14733;DHT22;7457;50.960;6.830;2023-04-05T11:44:20;18.80;38.70
14733;DHT22;7457;50.960;6.830;2023-04-05T11:46:46;18.80;37.90
14733;DHT22;7457;50.960;6.830;2023-04-05T11:49:12;18.80;37.60
14733;DHT22;7457;50.960;6.830;2023-04-05T11:51:40;18.80;37.70
14733;DHT22;7457;50.960;6.830;2023-04-05T11:54:13;18.80;38.20
14733;DHT22;7457;50.960;6.830;2023-04-05T11:56:39;18.80;38.10
14733;DHT22;7457;50.960;6.830;2023-04-05T11:59:05;18.80;37.90
14733;DHT22;7457;50.960;6.830;2023-04-05T12:01:31;18.70;37.60
14733;DHT22;7457;50.960;6.830;2023-04-05T12:03:57;18.40;37.70
14733;DHT22;7457;50.960;6.830;2023-04-05T12:06:25;18.20;38.20
14733;DHT22;7457;50.960;6.830;2023-04-05T12:08:51;18.20;38.10
14733;DHT22;7457;50.960;6.830;2023-04-05T12:13:56;18.20;38.40
14733;DHT22;7457;50.960;6.830;2023-04-05T12:16:23;18.10;37.80
14733;DHT22;7457;50.960;6.830;2023-04-05T12:18:53;17.80;38.50
14733;DHT22;7457;50.960;6.830;2023-04-05T12:21:19;17.70;38.50
14733;DHT22;7457;50.960;6.830;2023-04-05T12:23:45;17.80;39.00
14733;DHT22;7457;50.960;6.830;2023-04-05T12:26:12;17.90;39.50
14733;DHT22;7457;50.960;6.830;2023-04-05T12:28:57;17.90;38.70
14733;DHT22;7457;50.960;6.830;2023-04-05T12:31:43;17.60;37.50
14733;DHT22;7457;50.960;6.830;2023-04-05T12:34:10;17.00;37.10
14733;DHT22;7457;50.960;6.830;2023-04-05T12:36:37;16.30;37.30
14733;DHT22;7457;50.960;6.830;2023-04-05T12:39:07;15.70;38.00
14733;DHT22;7457;50.960;6.830;2023-04-05T12:41:33;14.90;38.80
14733;DHT22;7457;50.960;6.830;2023-04-05T12:44:16;14.60;39.30
14733;DHT22;7457;50.960;6.830;2023-04-05T12:46:59;14.30;40.50
14733;DHT22;7457;50.960;6.830;2023-04-05T12:49:27;14.10;41.30
14733;DHT22;7457;50.960;6.830;2023-04-05T12:51:53;14.10;41.90
14733;DHT22;7457;50.960;6.830;2023-04-05T12:54:22;14.00;42.30
14733;DHT22;7457;50.960;6.830;2023-04-05T12:56:52;13.90;42.60
14733;DHT22;7457;50.960;6.830;2023-04-05T12:59:19;13.80;42.40
14733;DHT22;7457;50.960;6.830;2023-04-05T13:01:45;13.70;41.90
14733;DHT22;7457;50.960;6.830;2023-04-05T13:04:10;13.60;42.10
14733;DHT22;7457;50.960;6.830;2023-04-05T13:06:36;13.60;42.60
14733;DHT22;7457;50.960;6.830;2023-04-05T13:09:02;13.60;42.40
14733;DHT22;7457;50.960;6.830;2023-04-05T13:11:27;13.60;42.60
14733;DHT22;7457;50.960;6.830;2023-04-05T13:13:53;13.60;42.60
14733;DHT22;7457;50.960;6.830;2023-04-05T13:16:19;13.50;42.40
14733;DHT22;7457;50.960;6.830;2023-04-05T13:18:44;13.50;42.30
14733;DHT22;7457;50.960;6.830;2023-04-05T13:21:10;13.40;42.30
14733;DHT22;7457;50.960;6.830;2023-04-05T13:23:37;13.30;42.10
14733;DHT22;7457;50.960;6.830;2023-04-05T13:26:04;13.20;41.90
14733;DHT22;7457;50.960;6.830;2023-04-05T13:28:30;13.20;41.70
14733;DHT22;7457;50.960;6.830;2023-04-05T13:30:56;13.10;41.20
14733;DHT22;7457;50.960;6.830;2023-04-05T13:33:21;12.90;41.60
14733;DHT22;7457;50.960;6.830;2023-04-05T13:35:47;12.90;41.90
14733;DHT22;7457;50.960;6.830;2023-04-05T13:38:13;12.80;41.70
14733;DHT22;7457;50.960;6.830;2023-04-05T13:40:39;12.70;41.30
14733;DHT22;7457;50.960;6.830;2023-04-05T13:43:05;12.60;41.70
14733;DHT22;7457;50.960;6.830;2023-04-05T13:45:30;12.60;41.80
14733;DHT22;7457;50.960;6.830;2023-04-05T13:47:57;12.50;41.70
14733;DHT22;7457;50.960;6.830;2023-04-05T13:50:23;12.50;42.00
14733;DHT22;7457;50.960;6.830;2023-04-05T13:52:50;12.40;42.20
14733;DHT22;7457;50.960;6.830;2023-04-05T13:55:16;12.50;42.40
14733;DHT22;7457;50.960;6.830;2023-04-05T13:57:42;12.50;42.60
14733;DHT22;7457;50.960;6.830;2023-04-05T14:00:08;12.50;42.10
14733;DHT22;7457;50.960;6.830;2023-04-05T14:02:34;12.50;42.10
14733;DHT22;7457;50.960;6.830;2023-04-05T14:04:59;12.50;41.90
14733;DHT22;7457;50.960;6.830;2023-04-05T14:07:26;12.40;41.80
14733;DHT22;7457;50.960;6.830;2023-04-05T14:09:51;12.30;42.00
14733;DHT22;7457;50.960;6.830;2023-04-05T14:12:17;12.30;42.20
14733;DHT22;7457;50.960;6.830;2023-04-05T14:14:43;12.30;42.70
14733;DHT22;7457;50.960;6.830;2023-04-05T14:17:09;12.30;42.60
14733;DHT22;7457;50.960;6.830;2023-04-05T14:19:37;12.30;42.10
14733;DHT22;7457;50.960;6.830;2023-04-05T14:22:03;12.30;41.90
14733;DHT22;7457;50.960;6.830;2023-04-05T14:24:28;12.10;41.50
14733;DHT22;7457;50.960;6.830;2023-04-05T14:26:54;12.00;41.60
14733;DHT22;7457;50.960;6.830;2023-04-05T14:29:21;11.80;41.40
14733;DHT22;7457;50.960;6.830;2023-04-05T14:31:47;11.70;41.90
14733;DHT22;7457;50.960;6.830;2023-04-05T14:34:13;11.50;41.80
14733;DHT22;7457;50.960;6.830;2023-04-05T14:36:39;11.40;41.80
14733;DHT22;7457;50.960;6.830;2023-04-05T14:39:05;11.40;42.10
14733;DHT22;7457;50.960;6.830;2023-04-05T14:41:31;11.40;42.60
14733;DHT22;7457;50.960;6.830;2023-04-05T14:43:57;11.50;42.70
14733;DHT22;7457;50.960;6.830;2023-04-05T14:46:23;11.50;42.40
14733;DHT22;7457;50.960;6.830;2023-04-05T14:48:49;11.60;42.40
14733;DHT22;7457;50.960;6.830;2023-04-05T14:51:14;11.60;42.30
14733;DHT22;7457;50.960;6.830;2023-04-05T14:53:40;11.60;42.30
14733;DHT22;7457;50.960;6.830;2023-04-05T14:56:06;11.60;42.30
14733;DHT22;7457;50.960;6.830;2023-04-05T14:58:34;11.60;42.30
14733;DHT22;7457;50.960;6.830;2023-04-05T15:01:00;11.70;42.50
14733;DHT22;7457;50.960;6.830;2023-04-05T15:03:26;11.70;42.50
14733;DHT22;7457;50.960;6.830;2023-04-05T15:05:52;11.70;41.90
14733;DHT22;7457;50.960;6.830;2023-04-05T15:08:18;11.60;41.60
14733;DHT22;7457;50.960;6.830;2023-04-05T15:10:44;11.60;41.60
14733;DHT22;7457;50.960;6.830;2023-04-05T15:13:11;11.50;41.40
14733;DHT22;7457;50.960;6.830;2023-04-05T15:15:37;11.50;41.40
14733;DHT22;7457;50.960;6.830;2023-04-05T15:18:04;11.40;41.50
14733;DHT22;7457;50.960;6.830;2023-04-05T15:20:30;11.30;41.40
14733;DHT22;7457;50.960;6.830;2023-04-05T15:22:56;11.30;41.80
14733;DHT22;7457;50.960;6.830;2023-04-05T15:25:22;11.30;41.90
14733;DHT22;7457;50.960;6.830;2023-04-05T15:27:47;11.30;41.80
14733;DHT22;7457;50.960;6.830;2023-04-05T15:30:13;11.30;41.70
14733;DHT22;7457;50.960;6.830;2023-04-05T15:32:39;11.30;41.70
14733;DHT22;7457;50.960;6.830;2023-04-05T15:35:06;11.30;41.90
14733;DHT22;7457;50.960;6.830;2023-04-05T15:37:31;11.30;41.80
14733;DHT22;7457;50.960;6.830;2023-04-05T15:39:57;11.30;41.60
14733;DHT22;7457;50.960;6.830;2023-04-05T15:42:23;11.30;41.70
14733;DHT22;7457;50.960;6.830;2023-04-05T15:44:49;11.30;41.60
14733;DHT22;7457;50.960;6.830;2023-04-05T15:47:16;11.30;41.50
14733;DHT22;7457;50.960;6.830;2023-04-05T15:49:42;11.30;41.60
14733;DHT22;7457;50.960;6.830;2023-04-05T15:52:11;11.30;41.60
14733;DHT22;7457;50.960;6.830;2023-04-05T15:54:37;11.20;41.50
14733;DHT22;7457;50.960;6.830;2023-04-05T15:57:03;11.20;41.80
14733;DHT22;7457;50.960;6.830;2023-04-05T15:59:28;11.10;42.00
14733;DHT22;7457;50.960;6.830;2023-04-05T16:01:54;11.10;41.80
14733;DHT22;7457;50.960;6.830;2023-04-05T16:04:20;11.10;42.10
14733;DHT22;7457;50.960;6.830;2023-04-05T16:06:47;11.00;42.20
14733;DHT22;7457;50.960;6.830;2023-04-05T16:09:13;11.00;42.20
14733;DHT22;7457;50.960;6.830;2023-04-05T16:11:38;11.00;42.20
14733;DHT22;7457;50.960;6.830;2023-04-05T16:14:04;11.00;42.10
14733;DHT22;7457;50.960;6.830;2023-04-05T16:16:30;11.00;42.10
14733;DHT22;7457;50.960;6.830;2023-04-05T16:18:55;11.00;42.30
14733;DHT22;7457;50.960;6.830;2023-04-05T16:21:22;10.90;42.20
14733;DHT22;7457;50.960;6.830;2023-04-05T16:23:48;10.90;42.10
14733;DHT22;7457;50.960;6.830;2023-04-05T16:26:14;10.90;42.10
14733;DHT22;7457;50.960;6.830;2023-04-05T16:28:39;10.80;41.80
14733;DHT22;7457;50.960;6.830;2023-04-05T16:31:05;10.80;41.90
14733;DHT22;7457;50.960;6.830;2023-04-05T16:33:31;10.70;42.20
14733;DHT22;7457;50.960;6.830;2023-04-05T16:35:57;10.70;42.20
14733;DHT22;7457;50.960;6.830;2023-04-05T16:38:23;10.60;42.30